sensor_id;sensor_type;location;lat;lon;timestamp;P1;durP1;ratioP1;P2;durP2;ratioP2
23684;SDS011;12020;51.384;6.908;2023-06-22T00:00:48;3.05;;;2.72;;
23684;SDS011;12020;51.384;6.908;2023-06-22T00:03:15;3.53;;;3.07;;
23684;SDS011;12020;51.384;6.908;2023-06-22T00:05:42;3.28;;;2.85;;
23684;SDS011;12020;51.384;6.908;2023-06-22T00:08:07;4.00;;;2.90;;
23684;SDS011;12020;51.384;6.908;2023-06-22T00:10:33;4.30;;;3.07;;
23684;SDS011;12020;51.384;6.908;2023-06-22T00:12:59;3.42;;;3.08;;
23684;SDS011;12020;51.384;6.908;2023-06-22T00:15:24;3.83;;;3.08;;
23684;SDS011;12020;51.384;6.908;2023-06-22T00:17:50;3.17;;;2.87;;
23684;SDS011;12020;51.384;6.908;2023-06-22T00:20:16;4.32;;;3.30;;
23684;SDS011;12020;51.384;6.908;2023-06-22T00:22:43;3.67;;;3.30;;
23684;SDS011;12020;51.384;6.908;2023-06-22T00:25:09;3.85;;;3.30;;
23684;SDS011;12020;51.384;6.908;2023-06-22T00:27:36;4.28;;;3.30;;
23684;SDS011;12020;51.384;6.908;2023-06-22T00:30:01;3.95;;;3.55;;
23684;SDS011;12020;51.384;6.908;2023-06-22T00:32:28;4.32;;;3.63;;
23684;SDS011;12020;51.384;6.908;2023-06-22T00:34:55;3.65;;;3.30;;
23684;SDS011;12020;51.384;6.908;2023-06-22T00:37:20;4.50;;;3.70;;
23684;SDS011;12020;51.384;6.908;2023-06-22T00:39:50;4.70;;;3.63;;
23684;SDS011;12020;51.384;6.908;2023-06-22T00:42:16;4.88;;;3.80;;
23684;SDS011;12020;51.384;6.908;2023-06-22T00:44:42;4.25;;;3.85;;
23684;SDS011;12020;51.384;6.908;2023-06-22T00:47:10;6.25;;;4.60;;
23684;SDS011;12020;51.384;6.908;2023-06-22T00:49:38;5.55;;;4.55;;
23684;SDS011;12020;51.384;6.908;2023-06-22T00:52:05;4.90;;;4.32;;
23684;SDS011;12020;51.384;6.908;2023-06-22T00:54:42;4.93;;;4.03;;
23684;SDS011;12020;51.384;6.908;2023-06-22T00:57:14;4.75;;;4.18;;
23684;SDS011;12020;51.384;6.908;2023-06-22T00:59:44;5.22;;;4.00;;
23684;SDS011;12020;51.384;6.908;2023-06-22T01:02:10;5.18;;;4.15;;
23684;SDS011;12020;51.384;6.908;2023-06-22T01:04:37;4.40;;;4.00;;
23684;SDS011;12020;51.384;6.908;2023-06-22T01:10:01;4.47;;;4.03;;
23684;SDS011;12020;51.384;6.908;2023-06-22T01:12:34;5.50;;;4.35;;
23684;SDS011;12020;51.384;6.908;2023-06-22T01:15:10;5.15;;;4.63;;
23684;SDS011;12020;51.384;6.908;2023-06-22T01:17:40;5.65;;;4.05;;
23684;SDS011;12020;51.384;6.908;2023-06-22T01:20:08;5.50;;;4.50;;
23684;SDS011;12020;51.384;6.908;2023-06-22T01:22:43;5.73;;;4.60;;
23684;SDS011;12020;51.384;6.908;2023-06-22T01:25:24;4.70;;;4.22;;
23684;SDS011;12020;51.384;6.908;2023-06-22T01:30:40;5.15;;;4.53;;
23684;SDS011;12020;51.384;6.908;2023-06-22T01:33:08;7.25;;;4.95;;
23684;SDS011;12020;51.384;6.908;2023-06-22T01:35:36;5.82;;;5.22;;
23684;SDS011;12020;51.384;6.908;2023-06-22T01:38:03;5.43;;;4.93;;
23684;SDS011;12020;51.384;6.908;2023-06-22T01:40:29;5.45;;;4.85;;
23684;SDS011;12020;51.384;6.908;2023-06-22T01:42:56;5.47;;;4.53;;
23684;SDS011;12020;51.384;6.908;2023-06-22T01:45:23;5.90;;;4.75;;
23684;SDS011;12020;51.384;6.908;2023-06-22T01:47:50;6.00;;;5.30;;
23684;SDS011;12020;51.384;6.908;2023-06-22T01:50:15;6.53;;;5.40;;
23684;SDS011;12020;51.384;6.908;2023-06-22T01:52:41;6.63;;;5.90;;
23684;SDS011;12020;51.384;6.908;2023-06-22T01:55:07;6.20;;;5.60;;
23684;SDS011;12020;51.384;6.908;2023-06-22T01:57:33;6.93;;;6.10;;
23684;SDS011;12020;51.384;6.908;2023-06-22T02:00:00;8.00;;;6.50;;
23684;SDS011;12020;51.384;6.908;2023-06-22T02:02:39;8.80;;;7.10;;
23684;SDS011;12020;51.384;6.908;2023-06-22T02:05:24;7.32;;;6.57;;
23684;SDS011;12020;51.384;6.908;2023-06-22T02:08:00;7.40;;;6.67;;
23684;SDS011;12020;51.384;6.908;2023-06-22T02:10:43;7.15;;;6.45;;
23684;SDS011;12020;51.384;6.908;2023-06-22T02:13:10;7.07;;;6.38;;
23684;SDS011;12020;51.384;6.908;2023-06-22T02:15:37;6.97;;;6.10;;
23684;SDS011;12020;51.384;6.908;2023-06-22T02:18:03;7.43;;;6.72;;
23684;SDS011;12020;51.384;6.908;2023-06-22T02:20:30;7.32;;;5.80;;
23684;SDS011;12020;51.384;6.908;2023-06-22T02:22:55;6.45;;;5.82;;
23684;SDS011;12020;51.384;6.908;2023-06-22T02:25:22;7.05;;;6.25;;
23684;SDS011;12020;51.384;6.908;2023-06-22T02:27:48;7.18;;;6.40;;
23684;SDS011;12020;51.384;6.908;2023-06-22T02:30:14;6.50;;;5.90;;
23684;SDS011;12020;51.384;6.908;2023-06-22T02:32:41;7.18;;;6.47;;
23684;SDS011;12020;51.384;6.908;2023-06-22T02:35:08;7.22;;;6.53;;
23684;SDS011;12020;51.384;6.908;2023-06-22T02:37:36;7.27;;;6.50;;
23684;SDS011;12020;51.384;6.908;2023-06-22T02:40:09;8.30;;;6.90;;
23684;SDS011;12020;51.384;6.908;2023-06-22T02:42:36;8.95;;;8.05;;
23684;SDS011;12020;51.384;6.908;2023-06-22T02:45:02;8.43;;;7.47;;
23684;SDS011;12020;51.384;6.908;2023-06-22T02:47:29;9.45;;;7.57;;
23684;SDS011;12020;51.384;6.908;2023-06-22T02:49:55;8.40;;;7.60;;
23684;SDS011;12020;51.384;6.908;2023-06-22T02:52:21;9.70;;;8.73;;
23684;SDS011;12020;51.384;6.908;2023-06-22T02:54:46;10.47;;;9.10;;
23684;SDS011;12020;51.384;6.908;2023-06-22T02:57:12;10.87;;;9.77;;
23684;SDS011;12020;51.384;6.908;2023-06-22T02:59:42;9.65;;;8.75;;
23684;SDS011;12020;51.384;6.908;2023-06-22T03:02:08;9.80;;;8.85;;
23684;SDS011;12020;51.384;6.908;2023-06-22T03:04:34;10.43;;;8.67;;
23684;SDS011;12020;51.384;6.908;2023-06-22T03:07:00;10.10;;;8.50;;
23684;SDS011;12020;51.384;6.908;2023-06-22T03:09:27;10.18;;;8.88;;
23684;SDS011;12020;51.384;6.908;2023-06-22T03:11:56;10.10;;;9.05;;
23684;SDS011;12020;51.384;6.908;2023-06-22T03:14:22;9.75;;;8.75;;
23684;SDS011;12020;51.384;6.908;2023-06-22T03:16:47;9.55;;;8.55;;
23684;SDS011;12020;51.384;6.908;2023-06-22T03:19:13;9.70;;;8.13;;
23684;SDS011;12020;51.384;6.908;2023-06-22T03:21:39;9.10;;;7.70;;
23684;SDS011;12020;51.384;6.908;2023-06-22T03:24:05;9.50;;;8.27;;
23684;SDS011;12020;51.384;6.908;2023-06-22T03:26:31;9.73;;;8.77;;
23684;SDS011;12020;51.384;6.908;2023-06-22T03:28:57;9.63;;;8.68;;
23684;SDS011;12020;51.384;6.908;2023-06-22T03:31:23;10.48;;;9.45;;
23684;SDS011;12020;51.384;6.908;2023-06-22T03:33:49;9.60;;;8.70;;
23684;SDS011;12020;51.384;6.908;2023-06-22T03:36:16;9.65;;;8.75;;
23684;SDS011;12020;51.384;6.908;2023-06-22T03:38:45;9.63;;;8.73;;
23684;SDS011;12020;51.384;6.908;2023-06-22T03:41:11;9.25;;;8.35;;
23684;SDS011;12020;51.384;6.908;2023-06-22T03:43:37;9.82;;;8.90;;
23684;SDS011;12020;51.384;6.908;2023-06-22T03:46:02;9.80;;;8.87;;
23684;SDS011;12020;51.384;6.908;2023-06-22T03:48:28;9.47;;;8.57;;
23684;SDS011;12020;51.384;6.908;2023-06-22T03:50:54;10.10;;;9.10;;
23684;SDS011;12020;51.384;6.908;2023-06-22T03:53:19;10.15;;;9.18;;
23684;SDS011;12020;51.384;6.908;2023-06-22T03:55:51;10.07;;;9.07;;
23684;SDS011;12020;51.384;6.908;2023-06-22T03:58:18;9.65;;;8.68;;
23684;SDS011;12020;51.384;6.908;2023-06-22T04:00:48;12.30;;;11.00;;
23684;SDS011;12020;51.384;6.908;2023-06-22T04:03:16;12.03;;;10.93;;
23684;SDS011;12020;51.384;6.908;2023-06-22T04:05:43;11.93;;;10.82;;
23684;SDS011;12020;51.384;6.908;2023-06-22T04:08:10;12.10;;;11.07;;
23684;SDS011;12020;51.384;6.908;2023-06-22T04:10:37;13.30;;;12.02;;
23684;SDS011;12020;51.384;6.908;2023-06-22T04:13:02;11.35;;;10.25;;
23684;SDS011;12020;51.384;6.908;2023-06-22T04:15:28;11.27;;;10.17;;
23684;SDS011;12020;51.384;6.908;2023-06-22T04:17:54;12.40;;;10.47;;
23684;SDS011;12020;51.384;6.908;2023-06-22T04:20:21;10.82;;;9.82;;
23684;SDS011;12020;51.384;6.908;2023-06-22T04:22:47;10.80;;;9.80;;
23684;SDS011;12020;51.384;6.908;2023-06-22T04:25:12;12.23;;;11.02;;
23684;SDS011;12020;51.384;6.908;2023-06-22T04:27:39;12.10;;;11.00;;
23684;SDS011;12020;51.384;6.908;2023-06-22T04:30:07;11.65;;;10.50;;
23684;SDS011;12020;51.384;6.908;2023-06-22T04:32:34;11.38;;;10.27;;
23684;SDS011;12020;51.384;6.908;2023-06-22T04:35:03;11.88;;;10.55;;
23684;SDS011;12020;51.384;6.908;2023-06-22T04:37:32;12.73;;;11.35;;
23684;SDS011;12020;51.384;6.908;2023-06-22T04:39:58;13.77;;;12.30;;
23684;SDS011;12020;51.384;6.908;2023-06-22T04:42:27;14.27;;;12.88;;
23684;SDS011;12020;51.384;6.908;2023-06-22T04:44:53;14.85;;;13.27;;
23684;SDS011;12020;51.384;6.908;2023-06-22T04:47:19;10.30;;;8.52;;
23684;SDS011;12020;51.384;6.908;2023-06-22T04:49:45;14.55;;;13.10;;
23684;SDS011;12020;51.384;6.908;2023-06-22T04:52:11;12.77;;;11.60;;
23684;SDS011;12020;51.384;6.908;2023-06-22T04:54:39;13.65;;;12.25;;
23684;SDS011;12020;51.384;6.908;2023-06-22T04:57:12;14.87;;;13.57;;
23684;SDS011;12020;51.384;6.908;2023-06-22T04:59:38;16.10;;;14.60;;
23684;SDS011;12020;51.384;6.908;2023-06-22T05:02:06;13.93;;;12.52;;
23684;SDS011;12020;51.384;6.908;2023-06-22T05:04:32;11.93;;;10.57;;
23684;SDS011;12020;51.384;6.908;2023-06-22T05:07:00;14.95;;;13.55;;
23684;SDS011;12020;51.384;6.908;2023-06-22T05:09:27;13.75;;;12.32;;
23684;SDS011;12020;51.384;6.908;2023-06-22T05:11:54;13.03;;;11.73;;
23684;SDS011;12020;51.384;6.908;2023-06-22T05:14:22;12.45;;;11.25;;
23684;SDS011;12020;51.384;6.908;2023-06-22T05:16:48;12.18;;;10.98;;
23684;SDS011;12020;51.384;6.908;2023-06-22T05:19:17;13.35;;;12.07;;
23684;SDS011;12020;51.384;6.908;2023-06-22T05:21:45;12.95;;;11.75;;
23684;SDS011;12020;51.384;6.908;2023-06-22T05:24:13;15.10;;;13.70;;
23684;SDS011;12020;51.384;6.908;2023-06-22T05:26:51;13.45;;;12.13;;
23684;SDS011;12020;51.384;6.908;2023-06-22T05:29:29;14.18;;;12.77;;
23684;SDS011;12020;51.384;6.908;2023-06-22T05:32:01;17.97;;;16.27;;
23684;SDS011;12020;51.384;6.908;2023-06-22T05:34:33;21.40;;;18.10;;
23684;SDS011;12020;51.384;6.908;2023-06-22T05:39:30;20.92;;;18.80;;
23684;SDS011;12020;51.384;6.908;2023-06-22T05:42:04;20.17;;;18.05;;
23684;SDS011;12020;51.384;6.908;2023-06-22T05:44:39;22.38;;;20.10;;
23684;SDS011;12020;51.384;6.908;2023-06-22T05:47:15;21.42;;;19.10;;
23684;SDS011;12020;51.384;6.908;2023-06-22T05:49:41;22.20;;;20.00;;
23684;SDS011;12020;51.384;6.908;2023-06-22T05:52:07;22.17;;;19.90;;
23684;SDS011;12020;51.384;6.908;2023-06-22T05:54:33;21.17;;;19.17;;
23684;SDS011;12020;51.384;6.908;2023-06-22T05:56:59;22.42;;;20.23;;
23684;SDS011;12020;51.384;6.908;2023-06-22T05:59:24;22.48;;;20.48;;
23684;SDS011;12020;51.384;6.908;2023-06-22T06:01:50;22.30;;;20.03;;
23684;SDS011;12020;51.384;6.908;2023-06-22T06:04:19;22.90;;;20.80;;
23684;SDS011;12020;51.384;6.908;2023-06-22T06:06:45;23.05;;;20.85;;
23684;SDS011;12020;51.384;6.908;2023-06-22T06:09:12;24.30;;;21.92;;
23684;SDS011;12020;51.384;6.908;2023-06-22T06:11:38;23.20;;;21.15;;
23684;SDS011;12020;51.384;6.908;2023-06-22T06:14:04;25.10;;;22.80;;
23684;SDS011;12020;51.384;6.908;2023-06-22T06:16:30;25.35;;;22.95;;
23684;SDS011;12020;51.384;6.908;2023-06-22T06:18:55;24.70;;;22.33;;
23684;SDS011;12020;51.384;6.908;2023-06-22T06:21:21;25.77;;;23.37;;
23684;SDS011;12020;51.384;6.908;2023-06-22T06:23:47;25.90;;;23.42;;
23684;SDS011;12020;51.384;6.908;2023-06-22T06:26:13;24.80;;;22.60;;
23684;SDS011;12020;51.384;6.908;2023-06-22T06:28:41;25.80;;;23.23;;
23684;SDS011;12020;51.384;6.908;2023-06-22T06:31:07;24.08;;;21.67;;
23684;SDS011;12020;51.384;6.908;2023-06-22T06:33:33;23.27;;;21.07;;
23684;SDS011;12020;51.384;6.908;2023-06-22T06:35:59;23.80;;;21.50;;
23684;SDS011;12020;51.384;6.908;2023-06-22T06:38:27;23.67;;;21.63;;
23684;SDS011;12020;51.384;6.908;2023-06-22T06:40:53;26.08;;;23.67;;
23684;SDS011;12020;51.384;6.908;2023-06-22T06:43:19;24.83;;;22.37;;
23684;SDS011;12020;51.384;6.908;2023-06-22T06:45:44;26.27;;;23.67;;
23684;SDS011;12020;51.384;6.908;2023-06-22T06:48:10;26.48;;;23.98;;
23684;SDS011;12020;51.384;6.908;2023-06-22T06:50:36;28.17;;;25.55;;
23684;SDS011;12020;51.384;6.908;2023-06-22T06:53:01;28.40;;;25.60;;
23684;SDS011;12020;51.384;6.908;2023-06-22T06:55:27;27.27;;;24.63;;
23684;SDS011;12020;51.384;6.908;2023-06-22T06:57:53;27.13;;;24.63;;
23684;SDS011;12020;51.384;6.908;2023-06-22T07:00:19;26.73;;;24.33;;
23684;SDS011;12020;51.384;6.908;2023-06-22T07:02:46;26.40;;;24.10;;
23684;SDS011;12020;51.384;6.908;2023-06-22T07:05:13;27.33;;;24.83;;
23684;SDS011;12020;51.384;6.908;2023-06-22T07:07:39;26.50;;;24.00;;
23684;SDS011;12020;51.384;6.908;2023-06-22T07:10:06;27.50;;;25.08;;
23684;SDS011;12020;51.384;6.908;2023-06-22T07:12:32;26.63;;;24.02;;
23684;SDS011;12020;51.384;6.908;2023-06-22T07:15:05;26.50;;;23.95;;
23684;SDS011;12020;51.384;6.908;2023-06-22T07:17:36;25.58;;;23.15;;
23684;SDS011;12020;51.384;6.908;2023-06-22T07:20:02;27.48;;;24.90;;
23684;SDS011;12020;51.384;6.908;2023-06-22T07:22:35;27.23;;;24.67;;
23684;SDS011;12020;51.384;6.908;2023-06-22T07:25:01;27.08;;;24.55;;
23684;SDS011;12020;51.384;6.908;2023-06-22T07:27:30;24.07;;;21.80;;
23684;SDS011;12020;51.384;6.908;2023-06-22T07:30:01;22.70;;;20.60;;
23684;SDS011;12020;51.384;6.908;2023-06-22T07:32:27;22.08;;;20.08;;
23684;SDS011;12020;51.384;6.908;2023-06-22T07:34:53;21.80;;;19.70;;
23684;SDS011;12020;51.384;6.908;2023-06-22T07:37:19;24.20;;;21.80;;
23684;SDS011;12020;51.384;6.908;2023-06-22T07:39:45;24.02;;;21.77;;
23684;SDS011;12020;51.384;6.908;2023-06-22T07:42:10;23.17;;;21.02;;
23684;SDS011;12020;51.384;6.908;2023-06-22T07:44:36;24.73;;;22.40;;
23684;SDS011;12020;51.384;6.908;2023-06-22T07:47:02;23.43;;;21.33;;
23684;SDS011;12020;51.384;6.908;2023-06-22T07:49:28;23.27;;;21.17;;
23684;SDS011;12020;51.384;6.908;2023-06-22T07:51:54;23.70;;;21.40;;
23684;SDS011;12020;51.384;6.908;2023-06-22T07:54:20;21.63;;;19.52;;
23684;SDS011;12020;51.384;6.908;2023-06-22T07:56:46;20.40;;;18.50;;
23684;SDS011;12020;51.384;6.908;2023-06-22T07:59:11;20.40;;;18.50;;
23684;SDS011;12020;51.384;6.908;2023-06-22T08:01:37;21.50;;;19.50;;
23684;SDS011;12020;51.384;6.908;2023-06-22T08:04:04;21.67;;;19.63;;
23684;SDS011;12020;51.384;6.908;2023-06-22T08:06:30;22.15;;;20.05;;
23684;SDS011;12020;51.384;6.908;2023-06-22T08:08:57;22.15;;;20.13;;
23684;SDS011;12020;51.384;6.908;2023-06-22T08:11:25;22.75;;;20.55;;
23684;SDS011;12020;51.384;6.908;2023-06-22T08:13:51;23.30;;;21.03;;
23684;SDS011;12020;51.384;6.908;2023-06-22T08:16:17;24.08;;;21.77;;
23684;SDS011;12020;51.384;6.908;2023-06-22T08:18:43;24.13;;;21.75;;
23684;SDS011;12020;51.384;6.908;2023-06-22T08:21:08;24.10;;;21.85;;
23684;SDS011;12020;51.384;6.908;2023-06-22T08:23:35;24.08;;;21.70;;
23684;SDS011;12020;51.384;6.908;2023-06-22T08:26:01;23.53;;;21.23;;
23684;SDS011;12020;51.384;6.908;2023-06-22T08:28:27;23.40;;;21.30;;
23684;SDS011;12020;51.384;6.908;2023-06-22T08:30:52;22.85;;;20.65;;
23684;SDS011;12020;51.384;6.908;2023-06-22T08:33:22;23.92;;;21.52;;
23684;SDS011;12020;51.384;6.908;2023-06-22T08:35:53;24.13;;;22.00;;
23684;SDS011;12020;51.384;6.908;2023-06-22T08:38:20;23.95;;;21.75;;
23684;SDS011;12020;51.384;6.908;2023-06-22T08:40:45;22.10;;;19.85;;
23684;SDS011;12020;51.384;6.908;2023-06-22T08:43:12;23.02;;;20.92;;
23684;SDS011;12020;51.384;6.908;2023-06-22T08:45:37;22.67;;;20.43;;
23684;SDS011;12020;51.384;6.908;2023-06-22T08:48:03;22.73;;;20.63;;
23684;SDS011;12020;51.384;6.908;2023-06-22T08:50:29;21.70;;;19.70;;
23684;SDS011;12020;51.384;6.908;2023-06-22T08:52:54;23.23;;;21.13;;
23684;SDS011;12020;51.384;6.908;2023-06-22T08:55:20;23.52;;;21.30;;
23684;SDS011;12020;51.384;6.908;2023-06-22T08:57:47;24.20;;;21.93;;
23684;SDS011;12020;51.384;6.908;2023-06-22T09:00:13;24.25;;;21.95;;
23684;SDS011;12020;51.384;6.908;2023-06-22T09:02:45;23.88;;;21.65;;
23684;SDS011;12020;51.384;6.908;2023-06-22T09:05:12;21.92;;;19.98;;
23684;SDS011;12020;51.384;6.908;2023-06-22T09:07:38;22.27;;;20.10;;
23684;SDS011;12020;51.384;6.908;2023-06-22T09:10:04;21.35;;;19.33;;
23684;SDS011;12020;51.384;6.908;2023-06-22T09:12:30;21.52;;;19.52;;
23684;SDS011;12020;51.384;6.908;2023-06-22T09:14:57;21.97;;;19.93;;
23684;SDS011;12020;51.384;6.908;2023-06-22T09:17:25;21.25;;;18.90;;
23684;SDS011;12020;51.384;6.908;2023-06-22T09:19:51;21.13;;;19.02;;
23684;SDS011;12020;51.384;6.908;2023-06-22T09:22:17;20.13;;;18.13;;
23684;SDS011;12020;51.384;6.908;2023-06-22T09:24:43;19.83;;;17.92;;
23684;SDS011;12020;51.384;6.908;2023-06-22T09:27:08;18.77;;;17.08;;
23684;SDS011;12020;51.384;6.908;2023-06-22T09:29:34;17.75;;;16.05;;
23684;SDS011;12020;51.384;6.908;2023-06-22T09:32:00;17.40;;;15.60;;
23684;SDS011;12020;51.384;6.908;2023-06-22T09:34:26;16.27;;;14.77;;
23684;SDS011;12020;51.384;6.908;2023-06-22T09:36:52;15.27;;;13.85;;
23684;SDS011;12020;51.384;6.908;2023-06-22T09:39:18;15.93;;;14.43;;
23684;SDS011;12020;51.384;6.908;2023-06-22T09:41:44;16.40;;;14.80;;
23684;SDS011;12020;51.384;6.908;2023-06-22T09:44:10;16.15;;;14.65;;
23684;SDS011;12020;51.384;6.908;2023-06-22T09:46:35;15.83;;;14.23;;
23684;SDS011;12020;51.384;6.908;2023-06-22T09:49:01;15.23;;;13.70;;
23684;SDS011;12020;51.384;6.908;2023-06-22T09:51:27;16.77;;;15.20;;
23684;SDS011;12020;51.384;6.908;2023-06-22T09:53:52;16.00;;;14.50;;
23684;SDS011;12020;51.384;6.908;2023-06-22T09:56:20;17.20;;;15.60;;
23684;SDS011;12020;51.384;6.908;2023-06-22T09:58:46;16.60;;;15.10;;
23684;SDS011;12020;51.384;6.908;2023-06-22T10:01:12;15.48;;;14.13;;
23684;SDS011;12020;51.384;6.908;2023-06-22T10:03:41;15.60;;;14.10;;
23684;SDS011;12020;51.384;6.908;2023-06-22T10:06:07;16.77;;;15.00;;
23684;SDS011;12020;51.384;6.908;2023-06-22T10:08:33;15.77;;;14.27;;
23684;SDS011;12020;51.384;6.908;2023-06-22T10:11:02;15.50;;;14.02;;
23684;SDS011;12020;51.384;6.908;2023-06-22T10:13:28;15.90;;;14.40;;
23684;SDS011;12020;51.384;6.908;2023-06-22T10:15:54;16.40;;;14.87;;
23684;SDS011;12020;51.384;6.908;2023-06-22T10:18:20;16.17;;;14.65;;
23684;SDS011;12020;51.384;6.908;2023-06-22T10:20:47;15.77;;;14.38;;
23684;SDS011;12020;51.384;6.908;2023-06-22T10:23:16;16.63;;;15.00;;
23684;SDS011;12020;51.384;6.908;2023-06-22T10:25:42;16.23;;;14.63;;
23684;SDS011;12020;51.384;6.908;2023-06-22T10:28:07;17.17;;;15.57;;
23684;SDS011;12020;51.384;6.908;2023-06-22T10:30:33;16.20;;;14.77;;
23684;SDS011;12020;51.384;6.908;2023-06-22T10:32:59;15.85;;;14.35;;
23684;SDS011;12020;51.384;6.908;2023-06-22T10:35:24;17.40;;;15.80;;
23684;SDS011;12020;51.384;6.908;2023-06-22T10:37:50;16.63;;;15.03;;
23684;SDS011;12020;51.384;6.908;2023-06-22T10:40:16;16.23;;;14.82;;
23684;SDS011;12020;51.384;6.908;2023-06-22T10:42:45;17.30;;;15.50;;
23684;SDS011;12020;51.384;6.908;2023-06-22T10:45:11;16.45;;;15.02;;
23684;SDS011;12020;51.384;6.908;2023-06-22T10:47:37;16.60;;;15.17;;
23684;SDS011;12020;51.384;6.908;2023-06-22T10:50:03;16.97;;;15.37;;
23684;SDS011;12020;51.384;6.908;2023-06-22T10:52:30;17.02;;;15.32;;
23684;SDS011;12020;51.384;6.908;2023-06-22T10:57:24;16.70;;;15.00;;
23684;SDS011;12020;51.384;6.908;2023-06-22T10:59:49;16.52;;;14.93;;
23684;SDS011;12020;51.384;6.908;2023-06-22T11:02:16;18.13;;;16.52;;
23684;SDS011;12020;51.384;6.908;2023-06-22T11:04:42;18.27;;;16.63;;
23684;SDS011;12020;51.384;6.908;2023-06-22T11:07:08;19.58;;;17.77;;
23684;SDS011;12020;51.384;6.908;2023-06-22T11:09:34;19.40;;;17.63;;
23684;SDS011;12020;51.384;6.908;2023-06-22T11:12:00;18.77;;;16.90;;
23684;SDS011;12020;51.384;6.908;2023-06-22T11:14:26;19.27;;;17.47;;
23684;SDS011;12020;51.384;6.908;2023-06-22T11:16:52;17.83;;;16.23;;
23684;SDS011;12020;51.384;6.908;2023-06-22T11:19:18;15.80;;;14.35;;
23684;SDS011;12020;51.384;6.908;2023-06-22T11:21:43;16.63;;;14.95;;
23684;SDS011;12020;51.384;6.908;2023-06-22T11:24:10;14.75;;;13.45;;
23684;SDS011;12020;51.384;6.908;2023-06-22T11:26:40;14.50;;;13.10;;
23684;SDS011;12020;51.384;6.908;2023-06-22T11:29:15;15.70;;;14.10;;
23684;SDS011;12020;51.384;6.908;2023-06-22T11:31:41;16.33;;;14.63;;
23684;SDS011;12020;51.384;6.908;2023-06-22T11:34:08;16.75;;;15.15;;
23684;SDS011;12020;51.384;6.908;2023-06-22T11:36:35;17.88;;;16.23;;
23684;SDS011;12020;51.384;6.908;2023-06-22T11:39:01;18.57;;;16.77;;
23684;SDS011;12020;51.384;6.908;2023-06-22T11:41:27;18.38;;;16.70;;
23684;SDS011;12020;51.384;6.908;2023-06-22T11:43:53;20.03;;;18.17;;
23684;SDS011;12020;51.384;6.908;2023-06-22T11:46:21;21.70;;;19.60;;
23684;SDS011;12020;51.384;6.908;2023-06-22T11:48:55;20.02;;;18.05;;
23684;SDS011;12020;51.384;6.908;2023-06-22T11:51:20;21.63;;;19.33;;
23684;SDS011;12020;51.384;6.908;2023-06-22T11:53:53;21.77;;;19.70;;
23684;SDS011;12020;51.384;6.908;2023-06-22T11:56:28;19.48;;;17.45;;
23684;SDS011;12020;51.384;6.908;2023-06-22T11:58:54;20.92;;;18.92;;
23684;SDS011;12020;51.384;6.908;2023-06-22T12:03:49;25.48;;;23.00;;
23684;SDS011;12020;51.384;6.908;2023-06-22T12:06:35;23.38;;;21.17;;
23684;SDS011;12020;51.384;6.908;2023-06-22T12:09:09;24.23;;;22.05;;
23684;SDS011;12020;51.384;6.908;2023-06-22T12:11:48;23.48;;;21.23;;
23684;SDS011;12020;51.384;6.908;2023-06-22T12:14:14;26.05;;;23.65;;
23684;SDS011;12020;51.384;6.908;2023-06-22T12:16:41;23.48;;;21.38;;
23684;SDS011;12020;51.384;6.908;2023-06-22T12:19:14;25.20;;;22.83;;
23684;SDS011;12020;51.384;6.908;2023-06-22T12:21:42;23.30;;;21.17;;
23684;SDS011;12020;51.384;6.908;2023-06-22T12:26:54;27.15;;;24.73;;
23684;SDS011;12020;51.384;6.908;2023-06-22T12:29:20;27.23;;;24.63;;
23684;SDS011;12020;51.384;6.908;2023-06-22T12:34:27;27.35;;;24.80;;
23684;SDS011;12020;51.384;6.908;2023-06-22T12:36:52;31.10;;;28.40;;
23684;SDS011;12020;51.384;6.908;2023-06-22T12:39:19;31.83;;;28.98;;
23684;SDS011;12020;51.384;6.908;2023-06-22T12:41:45;32.50;;;29.40;;
23684;SDS011;12020;51.384;6.908;2023-06-22T12:44:11;32.97;;;29.90;;
23684;SDS011;12020;51.384;6.908;2023-06-22T12:46:37;32.53;;;29.30;;
23684;SDS011;12020;51.384;6.908;2023-06-22T12:49:03;31.25;;;28.38;;
23684;SDS011;12020;51.384;6.908;2023-06-22T12:51:30;30.30;;;27.33;;
23684;SDS011;12020;51.384;6.908;2023-06-22T12:53:56;31.60;;;28.75;;
23684;SDS011;12020;51.384;6.908;2023-06-22T12:56:22;32.47;;;29.27;;
23684;SDS011;12020;51.384;6.908;2023-06-22T12:58:48;32.65;;;29.58;;
23684;SDS011;12020;51.384;6.908;2023-06-22T13:01:13;33.08;;;29.88;;
23684;SDS011;12020;51.384;6.908;2023-06-22T13:03:39;33.08;;;30.10;;
23684;SDS011;12020;51.384;6.908;2023-06-22T13:06:05;34.63;;;31.42;;
23684;SDS011;12020;51.384;6.908;2023-06-22T13:08:31;33.40;;;30.23;;
23684;SDS011;12020;51.384;6.908;2023-06-22T13:10:57;35.45;;;32.05;;
23684;SDS011;12020;51.384;6.908;2023-06-22T13:13:26;32.38;;;29.27;;
23684;SDS011;12020;51.384;6.908;2023-06-22T13:15:54;32.92;;;29.83;;
23684;SDS011;12020;51.384;6.908;2023-06-22T13:18:19;33.83;;;30.73;;
23684;SDS011;12020;51.384;6.908;2023-06-22T13:20:45;33.87;;;30.67;;
23684;SDS011;12020;51.384;6.908;2023-06-22T13:23:11;34.10;;;31.00;;
23684;SDS011;12020;51.384;6.908;2023-06-22T13:25:37;34.07;;;31.07;;
23684;SDS011;12020;51.384;6.908;2023-06-22T13:28:03;36.70;;;33.47;;
23684;SDS011;12020;51.384;6.908;2023-06-22T13:30:29;36.53;;;33.13;;
23684;SDS011;12020;51.384;6.908;2023-06-22T13:32:56;35.88;;;32.58;;
23684;SDS011;12020;51.384;6.908;2023-06-22T13:35:22;36.47;;;33.17;;
23684;SDS011;12020;51.384;6.908;2023-06-22T13:37:47;36.30;;;32.80;;
23684;SDS011;12020;51.384;6.908;2023-06-22T13:40:13;37.60;;;34.08;;
23684;SDS011;12020;51.384;6.908;2023-06-22T13:42:39;38.17;;;34.70;;
23684;SDS011;12020;51.384;6.908;2023-06-22T13:45:05;36.33;;;33.13;;
23684;SDS011;12020;51.384;6.908;2023-06-22T13:47:32;38.37;;;34.80;;
23684;SDS011;12020;51.384;6.908;2023-06-22T13:49:58;35.33;;;32.10;;
23684;SDS011;12020;51.384;6.908;2023-06-22T13:52:24;34.50;;;31.40;;
23684;SDS011;12020;51.384;6.908;2023-06-22T13:54:50;35.67;;;32.27;;
23684;SDS011;12020;51.384;6.908;2023-06-22T13:57:15;35.42;;;32.25;;
23684;SDS011;12020;51.384;6.908;2023-06-22T13:59:41;33.67;;;30.58;;
23684;SDS011;12020;51.384;6.908;2023-06-22T14:02:07;31.48;;;28.60;;
23684;SDS011;12020;51.384;6.908;2023-06-22T14:04:33;33.37;;;30.30;;
23684;SDS011;12020;51.384;6.908;2023-06-22T14:06:58;33.07;;;29.97;;
23684;SDS011;12020;51.384;6.908;2023-06-22T14:09:24;32.53;;;29.60;;
23684;SDS011;12020;51.384;6.908;2023-06-22T14:11:50;32.05;;;29.08;;
23684;SDS011;12020;51.384;6.908;2023-06-22T14:14:16;32.53;;;29.37;;
23684;SDS011;12020;51.384;6.908;2023-06-22T14:16:41;30.77;;;27.97;;
23684;SDS011;12020;51.384;6.908;2023-06-22T14:19:07;31.13;;;28.33;;
23684;SDS011;12020;51.384;6.908;2023-06-22T14:21:32;32.97;;;29.87;;
23684;SDS011;12020;51.384;6.908;2023-06-22T14:23:58;31.90;;;29.03;;
23684;SDS011;12020;51.384;6.908;2023-06-22T14:26:24;30.83;;;28.08;;
23684;SDS011;12020;51.384;6.908;2023-06-22T14:28:49;31.73;;;28.73;;
23684;SDS011;12020;51.384;6.908;2023-06-22T14:31:15;30.67;;;27.97;;
23684;SDS011;12020;51.384;6.908;2023-06-22T14:33:46;29.40;;;26.80;;
23684;SDS011;12020;51.384;6.908;2023-06-22T14:36:13;29.77;;;27.00;;
23684;SDS011;12020;51.384;6.908;2023-06-22T14:38:40;24.95;;;22.85;;
23684;SDS011;12020;51.384;6.908;2023-06-22T14:41:05;24.52;;;22.25;;
23684;SDS011;12020;51.384;6.908;2023-06-22T14:43:31;25.35;;;23.15;;
23684;SDS011;12020;51.384;6.908;2023-06-22T14:45:57;25.20;;;22.90;;